| Record Date MM/DD/YYYY | Record Julian Date NNN day of the year | Air Temperature Max (Degrees Fahrenheit F) | Time Max Air Temperature HH:MM:SS This is the time of max air temperature standard time. | Air Temperature Min (Degrees Fahrenheit F) | Time Min Air Temperature HH:MM:SS This is the time of min air temperature standard time. | Air Temperature Observed (Degrees Fahrenheit F) This is an instantaneous reading for air temperature at 7:00:00 standard time. | Relative Humidity Max (Percent) | Time Max Relative Humidity HH:MM:SS This is the time of max relative humidity standard time. | Relative Humidity Min (Percent) | Time Min Relative Humidity HH:MM:SS This is the time of min relative humidity standard time. | Relative Humidity Observed (Percent) This is an instantaneous reading at 7:00:00 standard time. | Precipitation (Inches n.nn) total rain fall that occurred for the day. | Pan Evaporation (Inches n.nn) total evaporation that occured for the day. | Wind Run (Miles) Wind travel for the day. | Wind Speed (Miles Per Hour) Resultant / Average speed for the day. | Wind Direction (Degrees) Resultant Direction for the day | Solar Radiation (Langley's) that occurred for the day. | Soil Temperature Max at 2 inch depth (Degrees Fahrenheit F) that occurred during the day. | Time Max Soil temperature at 2 inches HH:MM:SS This is the time of max 2 inch soil temperature standard time. | Soil Temperature Min at 2 inch depth (Degrees Fahrenheit F) that occurred during the day. | Time Min Soil temperature at 2 inches HH:MM:SS This is the time of min 2 inch soil temperature standard time. | Soil Temperature Observed at 2 inch depth (Degrees Fahrenheit F) This is an instantaneous reading 2 inch soil temperature at 7:00:00 standard time. | Soil Temperature Max at 4 inch depth (Degrees Fahrenheit F) that occurred during the day. | Time Max Soil temperature at 4 inches HH:MM:SS This is the time of max 4 inch soil temperature standard time. | Soil Temperature Min at 4 inch depth (Degrees Fahrenheit F) that occurred during the day. | Time Min Soil temperature at 4 inches HH:MM:SS This is the time of min 4 inch soil temperature standard time. | Soil Temperature Observed at 4 inch depth (Degrees Fahrenheit F) This is an instantaneous reading 4 inch soil temperature at 7:00:00 standard time. | DD50 Degree Days 50 Fahrenheit. | Adjusted DD50 Degree Days 50 Fahrenheit adjusted for latitude. | DD60 Degree Days 60 Fahrenheit. |
|---|---|---|---|---|---|---|---|---|---|---|---|---|---|---|---|---|---|---|---|---|---|---|---|---|---|---|---|---|---|---|
| 04/06/2026 | 96 | 71 | 15:56:03 | 46 | 5:58:03 | 49 | 82 | 23:59:02 | 30 | 15:34:02 | 73 | 0 | 98 | 4.1 | 11 | 540 | 75 | 14:05:00 | 59 | 6:20:04 | 59 | 5:58:02 | 0:30:02 | 8.5 | 9.59 | 0 | ||||
| 04/07/2026 | 97 | 76 | 14:49:05 | 45 | 0:29:02 | 53 | 87 | 0:36:04 | 31 | 15:51:04 | 75 | 0 | 104 | 4.3 | 33 | 594 | 78 | 13:39:02 | 58 | 6:36:02 | 58 | 6:24:03 | 0:21:01 | 10.5 | 11.62 | 0.5 | ||||
| 04/08/2026 | 98 | 79 | 14:38:03 | 52 | 5:41:03 | 55 | 82 | 20:40:03 | 34 | 15:35:04 | 73 | 0 | 106 | 4.4 | 117 | 564 | 77 | 14:24:00 | 60 | 6:01:02 | 60 | 16:24:05 | 0:00:02 | 15.5 | 16.66 | 5.5 | ||||
| 04/09/2026 | 99 | 78 | 14:39:04 | 48 | 5:35:00 | 58 | 85 | 5:38:02 | 37 | 14:15:03 | 65 | 0 | 112 | 4.7 | 128 | 594 | 80 | 14:14:03 | 60 | 6:32:00 | 61 | 5:28:00 | 0:17:01 | 13 | 14.19 | 3 | ||||
| 04/10/2026 | 100 | 82 | 15:36:03 | 47 | 5:44:00 | 58 | 92 | 23:43:04 | 43 | 15:37:00 | 78 | 0 | 53 | 2.2 | 130 | 534 | 80 | 14:08:03 | 61 | 6:07:05 | 62 | 5:14:04 | 1:03:03 | 14.5 | 15.72 | 4.5 | ||||
| 04/11/2026 | 101 | 84 | 14:54:04 | 50 | 4:46:04 | 64 | 98 | 6:20:02 | 37 | 14:55:03 | 84 | 0 | 36 | 1.5 | 130 | 548 | 84 | 14:05:05 | 63 | 6:20:01 | 64 | 14:35:01 | 0:00:04 | 17 | 18.25 | 7 | ||||
| 04/12/2026 | 102 | 86 | 14:59:00 | 53 | 5:58:02 | 64 | 95 | 6:06:04 | 39 | 14:32:02 | 82 | 0 | 109 | 4.5 | 165 | 573 | 82 | 13:45:05 | 64 | 6:03:02 | 65 | 13:16:01 | 0:04:05 | 19.5 | 20.78 | 9.5 | ||||
| 04/13/2026 | 103 | 84 | 14:18:01 | 58 | 1:43:03 | 64 | 87 | 23:55:00 | 50 | 15:52:02 | 83 | 0 | 106 | 4.4 | 163 | 400 | 80 | 14:26:05 | 67 | 6:01:05 | 68 | 14:15:03 | 0:16:04 | 21 | 22.31 | 11 | ||||
| 04/14/2026 | 104 | 85 | 15:34:04 | 57 | 5:30:05 | 67 | 96 | 6:05:00 | 42 | 16:37:03 | 84 | 0 | 99 | 4.1 | 165 | 574 | 85 | 14:13:00 | 67 | 6:15:01 | 67 | 14:04:05 | 0:03:03 | -169 | 21 | 22.34 | 11 | |||
| 04/15/2026 | 105 | 85 | 14:14:03 | 57 | 5:48:05 | 65 | 93 | 6:10:03 | 42 | 14:42:03 | 85 | 0 | 98 | 4.1 | 169 | 555 | 85 | 14:17:00 | 67 | 6:19:01 | 68 | 13:09:00 | 0:02:01 | 21 | 22.37 | 11 | ||||
| 04/16/2026 | 106 | 90 | 13:13:04 | 60 | 23:29:03 | 69 | 93 | 23:45:00 | 38 | 12:56:02 | 85 | 0 | 81 | 3.4 | 200 | 560 | 88 | 13:58:00 | 70 | 6:11:04 | 71 | 10:29:01 | 0:14:00 | 25 | 26.4 | 15 | ||||
| 04/17/2026 | 107 | 91 | 14:20:01 | 58 | 4:29:05 | 68 | 93 | 0:13:01 | 44 | 15:17:04 | 80 | 0 | 88 | 3.7 | 150 | 535 | 88 | 12:55:03 | 70 | 6:16:02 | 70 | 9:28:00 | 0:12:05 | -179 | 24.5 | 25.93 | 14.5 | |||
| 04/18/2026 | 108 | 81 | 12:15:00 | 50 | 23:28:03 | 68 | 95 | 17:52:01 | 63 | 12:38:01 | 84 | 0.25 | 127 | 5.3 | 245 | 231 | 82 | 12:50:02 | 68 | 23:58:03 | 72 | 16:39:05 | 0:05:03 | 15.5 | 16.96 | 5.5 | ||||
| 04/19/2026 | 109 | 70 | 15:24:05 | 45 | 23:59:02 | 49 | 96 | 5:49:03 | 31 | 15:49:05 | 93 | 0 | 99 | 4.1 | 342 | 568 | 82 | 13:31:02 | 63 | 23:58:05 | 64 | 2:57:00 | 0:30:01 | 7.5 | 8.99 | 0 | ||||
| 04/20/2026 | 110 | 78 | 14:07:04 | 40 | 5:37:00 | 55 | 97 | 6:04:05 | 31 | 14:08:04 | 81 | 0 | 47 | 1.9 | 181 | 622 | 84 | 13:42:03 | 60 | 6:04:05 | 60 | 0:28:05 | 1:15:00 | 9 | 10.52 | 0 | ||||
| 04/21/2026 | 111 | 82 | 14:40:05 | 44 | 4:39:04 | 58 | 97 | 6:03:03 | 30 | 11:35:00 | 84 | 0 | 61 | 2.6 | 185 | 555 | 81 | 14:27:00 | 62 | 6:13:00 | 63 | 5:08:02 | 0:25:03 | 13 | 14.55 | 3 | ||||
| 04/22/2026 | 112 | 85 | 15:37:03 | 48 | 4:50:00 | 62 | 94 | 5:33:05 | 29 | 13:16:02 | 77 | 0 | 75 | 3.1 | 152 | 612 | 86 | 13:27:05 | 64 | 6:06:04 | 65 | 4:15:01 | 0:06:02 | 16.5 | 18.08 | 6.5 | ||||
| 04/23/2026 | 113 | 86 | 13:31:03 | 54 | 4:19:01 | 66 | 94 | 4:50:00 | 36 | 13:31:05 | 84 | 0 | 102 | 4.2 | 143 | 561 | 86 | 13:26:01 | 67 | 6:00:02 | 68 | 12:23:04 | 0:08:03 | 20 | 21.61 | 10 | ||||
| 04/24/2026 | 114 | 80 | 13:18:02 | 56 | 4:30:04 | 67 | 97 | 20:58:01 | 60 | 13:23:02 | 84 | 0.5 | 108 | 4.5 | 162 | 367 | 81 | 13:35:05 | 68 | 5:53:00 | 69 | 12:35:01 | 0:11:00 | -179 | 18 | 19.63 | 8 | |||
| 04/25/2026 | 115 | 82 | 15:02:03 | 63 | 5:24:05 | 65 | 97 | 5:35:00 | 58 | 15:05:03 | 96 | 0.08 | 67 | 2.8 | 285 | 508 | 85 | 13:23:02 | 69 | 5:35:01 | 69 | 18:13:03 | 1:53:02 | 22.5 | 24.16 | 12.5 | ||||
| 04/26/2026 | 116 | 87 | 14:24:04 | 60 | 4:00:03 | 67 | 98 | 5:53:02 | 47 | 14:25:00 | 92 | 0 | 36 | 1.5 | 114 | 502 | 84 | 11:58:00 | 69 | 5:34:04 | 70 | 4:02:00 | 0:09:02 | 23.5 | 25.18 | 13.5 | ||||
| 04/27/2026 | 117 | 89 | 15:52:00 | 65 | 0:24:03 | 70 | 94 | 4:51:05 | 52 | 15:54:03 | 90 | 0 | 180 | 7.5 | 153 | 456 | 81 | 12:37:02 | 70 | 5:22:00 | 70 | 22:13:05 | 0:08:05 | 27 | 27.71 | 17 | ||||
| 04/28/2026 | 118 | 77 | 0:01:05 | 66 | 22:38:01 | 68 | 99 | 23:42:05 | 69 | 0:07:02 | 94 | 3.86 | 159 | 6.6 | 143 | 59 | 74 | 0:02:04 | 69 | 23:59:03 | 71 | 10:11:01 | 0:20:02 | 21.5 | 23.24 | 11.5 | ||||
| 04/29/2026 | 119 | 82 | 14:31:01 | 61 | 23:58:01 | 70 | 98 | 3:46:02 | 68 | 14:21:00 | 98 | 0.52 | 121 | 5.1 | 351 | 367 | 81 | 15:10:02 | 68 | 2:30:05 | 69 | 13:14:03 | 0:00:05 | 21.5 | 23.26 | 11.5 | ||||
| 04/30/2026 | 120 | 69 | 12:52:03 | 57 | 6:35:02 | 57 | 96 | 2:11:03 | 54 | 15:19:01 | 84 | 0.14 | 111 | 4.6 | 15 | 499 | 81 | 12:58:02 | 67 | 6:48:01 | 67 | 17:54:04 | 0:49:01 | -179 | 13 | 14.78 | 3 | |||
| 05/01/2026 | 121 | 64 | 14:03:03 | 55 | 5:36:01 | 56 | 90 | 20:02:01 | 53 | 13:55:00 | 80 | 0 | 74 | 3.1 | 1 | 222 | 69 | 14:19:00 | 64 | 23:59:00 | 64 | 2:01:01 | 0:02:05 | 9.5 | 11.31 | 0 | ||||
| 05/02/2026 | 122 | 71 | 15:15:01 | 52 | 22:03:05 | 54 | 78 | 21:51:01 | 33 | 14:45:03 | 69 | 0 | 111 | 4.6 | 347 | 636 | 78 | 12:55:00 | 61 | 5:59:04 | 61 | 2:23:02 | 0:01:02 | 11.5 | 13.33 | 1.5 | ||||
| 05/03/2026 | 123 | 75 | 15:45:01 | 43 | 4:43:01 | 54 | 96 | 5:47:03 | 35 | 15:47:03 | 79 | 0 | 51 | 2.1 | 170 | 659 | 80 | 12:55:03 | 58 | 5:57:05 | 59 | 4:57:00 | 0:22:01 | 9 | 10.85 | 0 | ||||
| 05/04/2026 | 124 | 82 | 14:37:05 | 48 | 4:06:00 | 61 | 95 | 4:53:03 | 37 | 15:27:02 | 76 | 0 | 90 | 3.7 | 179 | 636 | 81 | 12:54:02 | 61 | 6:05:02 | 62 | 2:53:00 | 0:01:03 | 15 | 16.88 | 5 | ||||
| 05/05/2026 | 125 | 78 | 13:56:04 | 55 | 4:53:05 | 63 | 88 | 5:00:00 | 60 | 10:51:03 | 79 | 0 | 141 | 5.9 | 173 | 404 | 75 | 11:48:01 | 63 | 5:24:04 | 64 | 14:01:04 | 0:03:00 | 16.5 | 18.4 | 6.5 | ||||
| Average | 80.3 | 53.1 | 61.47 | 92.73 | 43.77 | 82.37 | 0.18 | 95 | 501.17 | 81.1 | 64.57 | 65.33 | 0 | 0 | 0 | 16.7 | 18.19 | 6.92 | ||||||||||||
| Total | 5.35 | 501 | 545.6 | 207.5 |